Terminal Aerodrome Forecast
Issued by NWS Jackson, MS

Home | Current Version | Previous Version | Text Only | Print | Product List | Glossary On
Versions: 1 2 3 4 5 6 7 8 9 10 11 12 13
000
FTUS44 KJAN 300500
TAFJAN
TAF
KJAN 300521Z 3006/3106 17005KT P6SM BKN120
     FM301000 15004KT P6SM VCSH BKN015
     FM301500 17007KT P6SM SHRA VCTS BKN025CB
     FM302000 17008KT P6SM VCTS SCT030CB BKN100
     FM310000 16005KT P6SM BKN080=

USA.gov is the U.S. government's official web portal to all federal, state and local government web resources and services.